createdAt,value
2019-05-03T00:00:58.776Z,9.59
2019-05-03T00:01:58.734Z,9.60
2019-05-03T00:02:58.730Z,9.60
2019-05-03T00:03:58.707Z,9.59
2019-05-03T00:04:58.726Z,9.69
2019-05-03T00:05:58.686Z,9.65
2019-05-03T00:06:58.674Z,9.62
2019-05-03T00:07:58.666Z,9.52
2019-05-03T00:08:58.687Z,9.62
2019-05-03T00:09:58.685Z,9.55
2019-05-03T00:10:58.638Z,9.62
2019-05-03T00:11:58.614Z,9.51
2019-05-03T00:12:58.603Z,9.57
2019-05-03T00:13:58.591Z,9.48
2019-05-03T00:14:58.605Z,9.55
2019-05-03T00:15:58.569Z,9.48
2019-05-03T00:16:58.558Z,9.48
2019-05-03T00:17:58.548Z,9.50
2019-05-03T00:19:00.959Z,9.45
2019-05-03T00:19:58.564Z,9.42
2019-05-03T00:20:58.513Z,9.45
2019-05-03T00:21:58.500Z,9.45
2019-05-03T00:22:58.489Z,9.47
2019-05-03T00:23:58.484Z,9.52
2019-05-03T00:25:06.068Z,9.52
2019-05-03T00:25:59.488Z,9.55
2019-05-03T00:26:58.446Z,9.42
2019-05-03T00:27:58.433Z,9.48
2019-05-03T00:28:58.426Z,9.57
2019-05-03T00:29:58.412Z,9.45
2019-05-03T00:30:58.428Z,9.41
2019-05-03T00:31:58.396Z,9.41
2019-05-03T00:32:58.377Z,9.54
2019-05-03T00:33:58.365Z,9.55
2019-05-03T00:34:58.379Z,9.47
2019-05-03T00:35:58.371Z,9.54
2019-05-03T00:36:58.332Z,9.54
2019-05-03T00:37:58.325Z,9.45
2019-05-03T00:38:58.310Z,9.34
2019-05-03T00:39:58.355Z,9.41
2019-05-03T00:40:58.284Z,9.32
2019-05-03T00:41:58.273Z,9.18
2019-05-03T00:42:58.266Z,9.29
2019-05-03T00:43:58.254Z,9.19
2019-05-03T00:44:58.237Z,9.23
2019-05-03T00:45:58.261Z,9.37
2019-05-03T00:46:58.222Z,9.26
2019-05-03T00:47:58.205Z,9.30
2019-05-03T00:48:58.202Z,9.24
2019-05-03T00:49:58.189Z,9.23
2019-05-03T00:50:58.194Z,9.24
2019-05-03T00:51:58.157Z,9.27
2019-05-03T00:52:58.147Z,9.36
2019-05-03T00:53:58.135Z,9.26
2019-05-03T00:54:58.124Z,9.24
2019-05-03T00:55:58.153Z,9.32
2019-05-03T00:56:58.107Z,9.41
2019-05-03T00:57:58.087Z,9.37
2019-05-03T00:58:58.080Z,9.42
2019-05-03T00:59:58.072Z,9.34
2019-05-03T01:00:58.093Z,9.45
2019-05-03T01:01:58.067Z,9.40
2019-05-03T01:02:58.035Z,9.47
2019-05-03T01:03:58.028Z,9.36
2019-05-03T01:04:58.013Z,9.40
2019-05-03T01:05:58.031Z,9.45
2019-05-03T01:06:57.983Z,9.30
2019-05-03T01:07:57.979Z,9.26
2019-05-03T01:08:57.973Z,9.26
2019-05-03T01:09:57.972Z,9.16
2019-05-03T01:10:57.968Z,9.24
2019-05-03T01:11:57.929Z,9.24
2019-05-03T01:12:57.917Z,9.30
2019-05-03T01:13:57.905Z,9.29
2019-05-03T01:14:57.890Z,9.24
2019-05-03T01:15:57.906Z,9.36
2019-05-03T01:16:57.894Z,9.27
2019-05-03T01:17:57.857Z,9.30
2019-05-03T01:18:57.845Z,9.30
2019-05-03T01:19:57.841Z,9.41
2019-05-03T01:20:57.824Z,9.29
2019-05-03T01:21:57.838Z,9.36
2019-05-03T01:22:57.806Z,9.45
2019-05-03T01:23:57.798Z,9.41
2019-05-03T01:24:57.777Z,9.33
2019-05-03T01:25:57.765Z,9.42
2019-05-03T01:26:57.800Z,9.41
2019-05-03T01:27:57.741Z,9.33
2019-05-03T01:28:57.741Z,9.33
2019-05-03T01:29:57.723Z,9.36
2019-05-03T01:30:57.712Z,9.37
2019-05-03T01:31:57.728Z,9.30
2019-05-03T01:32:57.689Z,9.34
2019-05-03T01:33:57.672Z,9.42
2019-05-03T01:34:57.661Z,9.37
2019-05-03T01:35:57.659Z,9.33
2019-05-03T01:36:57.678Z,9.34
2019-05-03T01:37:57.635Z,9.34
2019-05-03T01:38:57.619Z,9.37
2019-05-03T01:39:57.608Z,9.36
2019-05-03T01:40:57.604Z,9.29
2019-05-03T01:41:57.606Z,9.27
2019-05-03T01:43:58.679Z,9.34
2019-05-03T01:44:57.551Z,9.37
2019-05-03T01:45:57.538Z,9.30
2019-05-03T01:46:57.561Z,9.24
2019-05-03T01:47:57.517Z,9.24
2019-05-03T01:48:57.561Z,9.27
2019-05-03T01:49:57.490Z,9.19
2019-05-03T01:50:57.661Z,9.19
2019-05-03T01:51:57.498Z,9.11
2019-05-03T01:52:57.594Z,9.19
2019-05-03T01:53:57.450Z,9.09
2019-05-03T01:54:57.579Z,9.23
2019-05-03T01:55:57.422Z,9.11
2019-05-03T01:56:59.181Z,9.16
2019-05-03T01:57:57.428Z,9.22
2019-05-03T01:58:57.389Z,9.03
2019-05-03T01:59:57.384Z,9.14
2019-05-03T02:00:57.392Z,9.12
2019-05-03T02:01:57.354Z,9.03
2019-05-03T02:02:57.368Z,9.19
2019-05-03T02:03:57.333Z,9.12
2019-05-03T02:04:57.322Z,9.15
2019-05-03T02:05:57.306Z,9.08
2019-05-03T02:06:57.299Z,9.15
2019-05-03T02:07:57.310Z,9.09
2019-05-03T02:08:57.273Z,9.12
2019-05-03T02:09:57.262Z,9.11
2019-05-03T02:10:57.252Z,9.18
2019-05-03T02:11:57.242Z,9.04
2019-05-03T02:12:57.258Z,9.15
2019-05-03T02:13:57.226Z,8.98
2019-05-03T02:14:57.206Z,9.15
2019-05-03T02:15:57.202Z,9.08
2019-05-03T02:16:57.193Z,9.19
2019-05-03T02:18:58.278Z,9.04
2019-05-03T02:19:57.149Z,9.08
2019-05-03T02:20:57.140Z,9.06
2019-05-03T02:21:57.146Z,8.99
2019-05-03T02:22:57.147Z,8.90
2019-05-03T02:23:57.101Z,8.98
2019-05-03T02:24:57.090Z,9.04
2019-05-03T02:25:59.262Z,9.01
2019-05-03T02:26:57.068Z,9.03
2019-05-03T02:27:57.077Z,8.99
2019-05-03T02:28:57.073Z,9.04
2019-05-03T02:29:57.034Z,9.06
2019-05-03T02:30:57.022Z,9.08
2019-05-03T02:31:57.018Z,9.12
2019-05-03T02:32:57.006Z,9.06
2019-05-03T02:33:57.016Z,9.11
2019-05-03T02:34:56.985Z,9.12
2019-05-03T02:35:56.966Z,8.96
2019-05-03T02:37:58.066Z,9.09
2019-05-03T02:38:56.956Z,9.04
2019-05-03T02:39:56.929Z,9.14
2019-05-03T02:40:56.914Z,9.06
2019-05-03T02:42:05.771Z,9.03
2019-05-03T02:42:57.884Z,9.06
2019-05-03T02:43:56.906Z,9.16
2019-05-03T02:44:56.861Z,9.04
2019-05-03T02:45:56.958Z,9.04
2019-05-03T02:46:56.840Z,9.03
2019-05-03T02:47:56.841Z,9.03
2019-05-03T02:48:56.867Z,9.08
2019-05-03T02:49:56.806Z,9.08
2019-05-03T02:50:56.803Z,9.08
2019-05-03T02:51:56.806Z,9.12
2019-05-03T02:52:56.777Z,9.06
2019-05-03T02:53:57.336Z,9.04
2019-05-03T02:54:56.784Z,9.08
2019-05-03T02:56:57.841Z,8.93
2019-05-03T02:57:56.732Z,8.93
2019-05-03T02:58:56.729Z,9.06
2019-05-03T02:59:56.723Z,9.03
2019-05-03T03:00:56.690Z,8.96
2019-05-03T03:01:56.677Z,9.03
2019-05-03T03:02:56.669Z,8.92
2019-05-03T03:03:56.746Z,8.93
2019-05-03T03:04:56.668Z,8.86
2019-05-03T03:05:56.643Z,8.92
2019-05-03T03:06:56.630Z,8.98
2019-05-03T03:07:56.694Z,8.98
2019-05-03T03:08:56.590Z,8.98
2019-05-03T03:09:56.673Z,9.01
2019-05-03T03:10:56.573Z,8.95
2019-05-03T03:11:56.597Z,8.88
2019-05-03T03:12:56.543Z,8.89
2019-05-03T03:14:57.672Z,8.98
2019-05-03T03:17:45.711Z,8.93
2019-05-03T03:18:45.668Z,9.04
2019-05-03T03:19:45.982Z,8.98
2019-05-03T03:22:36.293Z,8.89
2019-05-03T03:23:35.528Z,8.78
2019-05-03T03:24:36.189Z,8.86
2019-05-03T03:25:36.161Z,8.81
2019-05-03T03:26:39.240Z,8.81
2019-05-03T03:27:36.095Z,8.85
2019-05-03T03:28:35.946Z,8.89
2019-05-03T03:29:35.865Z,8.81
2019-05-03T03:30:38.140Z,8.88
2019-05-03T03:31:37.773Z,8.93
2019-05-03T03:32:38.482Z,8.96
2019-05-03T03:33:39.690Z,8.99
2019-05-03T03:34:38.622Z,8.86
2019-05-03T03:35:38.233Z,8.85
2019-05-03T03:36:50.356Z,8.88
2019-05-03T03:37:35.494Z,8.83
2019-05-03T03:38:35.316Z,8.75
2019-05-03T03:39:36.118Z,8.78
2019-05-03T03:40:35.809Z,8.72
2019-05-03T03:41:35.354Z,8.72
2019-05-03T03:42:35.978Z,8.72
2019-05-03T03:43:35.497Z,8.81
2019-05-03T03:44:36.279Z,8.75
2019-05-03T03:45:35.975Z,8.78
2019-05-03T03:46:35.767Z,8.90
2019-05-03T03:47:35.849Z,8.89
2019-05-03T03:48:35.476Z,8.81
2019-05-03T03:49:35.590Z,8.85
2019-05-03T03:50:35.861Z,8.77
2019-05-03T03:51:35.103Z,8.78
2019-05-03T03:52:35.997Z,8.83
2019-05-03T03:53:35.631Z,8.80
2019-05-03T03:54:35.486Z,8.72
2019-05-03T03:55:35.434Z,8.80
2019-05-03T03:56:46.031Z,8.77
2019-05-03T03:57:35.712Z,8.80
2019-05-03T03:58:36.002Z,8.74
2019-05-03T03:59:36.357Z,8.68
2019-05-03T04:00:36.219Z,8.70
2019-05-03T04:01:35.030Z,8.74
2019-05-03T04:02:35.361Z,8.70
2019-05-03T04:03:36.154Z,8.75
2019-05-03T04:04:35.749Z,8.52
2019-05-03T04:05:35.775Z,8.63
2019-05-03T04:06:35.796Z,8.63
2019-05-03T04:07:36.167Z,8.70
2019-05-03T04:08:36.071Z,8.70
2019-05-03T04:09:36.443Z,8.72
2019-05-03T04:10:35.238Z,8.55
2019-05-03T04:11:35.061Z,8.65
2019-05-03T04:12:35.236Z,8.65
2019-05-03T04:13:36.116Z,8.63
2019-05-03T04:14:36.195Z,8.55
2019-05-03T04:15:36.684Z,8.62
2019-05-03T04:16:36.242Z,8.65
2019-05-03T04:17:36.041Z,8.52
2019-05-03T04:18:35.963Z,8.56
2019-05-03T04:19:36.376Z,8.55
2019-05-03T04:20:36.008Z,8.63
2019-05-03T04:21:35.915Z,8.60
2019-05-03T04:22:36.151Z,8.60
2019-05-03T04:23:35.878Z,8.56
2019-05-03T04:24:35.181Z,8.70
2019-05-03T04:25:35.644Z,8.55
2019-05-03T04:26:35.804Z,8.65
2019-05-03T04:27:36.374Z,8.52
2019-05-03T04:28:36.207Z,8.62
2019-05-03T04:29:35.592Z,8.59
2019-05-03T04:30:36.160Z,8.50
2019-05-03T04:31:36.516Z,8.63
2019-05-03T04:32:36.009Z,8.57
2019-05-03T04:33:35.908Z,8.60
2019-05-03T04:34:35.878Z,8.56
2019-05-03T04:35:36.352Z,8.50
2019-05-03T04:36:35.779Z,8.53
2019-05-03T04:37:35.972Z,8.57
2019-05-03T04:38:35.399Z,8.56
2019-05-03T04:39:35.913Z,8.37
2019-05-03T04:40:35.837Z,8.55
2019-05-03T04:41:35.689Z,8.35
2019-05-03T04:42:35.692Z,8.53
2019-05-03T04:43:35.629Z,8.44
2019-05-03T04:44:35.789Z,8.56
2019-05-03T04:45:36.410Z,8.50
2019-05-03T04:46:35.801Z,8.49
2019-05-03T04:47:35.728Z,8.60
2019-05-03T04:48:35.819Z,8.55
2019-05-03T04:49:35.971Z,8.59
2019-05-03T04:50:36.359Z,8.53
2019-05-03T04:51:35.036Z,8.39
2019-05-03T04:52:35.974Z,8.50
2019-05-03T04:53:35.590Z,8.41
2019-05-03T04:54:35.426Z,8.59
2019-05-03T04:55:35.865Z,8.52
2019-05-03T04:56:35.865Z,8.56
2019-05-03T04:57:40.566Z,8.50
2019-05-03T04:58:36.470Z,8.55
2019-05-03T04:59:35.714Z,8.52
2019-05-03T05:00:35.927Z,8.56
2019-05-03T05:01:35.258Z,8.53
2019-05-03T05:02:35.460Z,8.49
2019-05-03T05:03:35.849Z,8.47
2019-05-03T05:04:35.505Z,8.44
2019-05-03T05:05:33.250Z,8.38
2019-05-03T05:06:35.080Z,8.53
2019-05-03T05:07:35.048Z,8.39
2019-05-03T05:08:35.600Z,8.41
2019-05-03T05:09:34.993Z,8.42
2019-05-03T05:10:33.198Z,8.37
2019-05-03T05:11:35.055Z,8.53
2019-05-03T05:12:35.401Z,8.59
2019-05-03T05:13:35.496Z,8.53
2019-05-03T05:14:35.258Z,8.46
2019-05-03T05:15:35.377Z,8.55
2019-05-03T05:16:35.429Z,8.46
2019-05-03T05:17:35.365Z,8.52
2019-05-03T05:18:35.367Z,8.56
2019-05-03T05:19:33.129Z,8.57
2019-05-03T05:20:34.997Z,8.57
2019-05-03T05:21:33.072Z,8.60
2019-05-03T05:22:34.835Z,8.60
2019-05-03T05:23:35.213Z,8.47
2019-05-03T05:24:34.611Z,8.52
2019-05-03T05:25:33.024Z,8.62
2019-05-03T05:26:33.015Z,8.55
2019-05-03T05:27:34.583Z,8.50
2019-05-03T05:28:35.533Z,8.52
2019-05-03T05:29:34.630Z,8.57
2019-05-03T05:30:35.172Z,8.70
2019-05-03T05:31:32.953Z,8.53
2019-05-03T05:32:34.951Z,8.55
2019-05-03T05:33:32.930Z,8.67
2019-05-03T05:34:34.773Z,8.71
2019-05-03T05:35:32.908Z,8.68
2019-05-03T05:36:34.667Z,8.50
2019-05-03T05:37:32.883Z,8.63
2019-05-03T05:38:34.677Z,8.67
2019-05-03T05:39:32.891Z,8.59
2019-05-03T05:40:34.738Z,8.65
2019-05-03T05:41:34.664Z,8.55
2019-05-03T05:42:34.549Z,8.50
2019-05-03T05:43:32.820Z,8.53
2019-05-03T05:44:32.806Z,8.52
2019-05-03T05:45:34.681Z,8.50
2019-05-03T05:46:32.783Z,8.62
2019-05-03T05:47:34.510Z,8.59
2019-05-03T05:48:34.771Z,8.52
2019-05-03T05:49:32.761Z,8.63
2019-05-03T05:50:34.512Z,8.68
2019-05-03T05:51:32.722Z,8.60
2019-05-03T05:52:34.506Z,8.68
2019-05-03T05:53:32.718Z,8.70
2019-05-03T05:54:32.696Z,8.70
2019-05-03T05:55:34.477Z,8.68
2019-05-03T05:56:32.672Z,8.65
2019-05-03T05:57:34.549Z,8.70
2019-05-03T05:58:34.646Z,8.74
2019-05-03T05:59:32.635Z,8.75
2019-05-03T06:00:32.649Z,8.80
2019-05-03T06:01:32.611Z,8.75
2019-05-03T06:02:35.727Z,8.88
2019-05-03T06:03:34.346Z,8.67
2019-05-03T06:04:32.577Z,8.83
2019-05-03T06:06:34.824Z,8.67
2019-05-03T06:07:32.546Z,8.70
2019-05-03T06:08:32.528Z,8.68
2019-05-03T06:09:34.355Z,8.71
2019-05-03T06:10:34.694Z,8.68
2019-05-03T06:11:32.499Z,8.70
2019-05-03T06:12:32.488Z,8.60
2019-05-03T06:13:34.345Z,8.70
2019-05-03T06:14:34.553Z,8.68
2019-05-03T06:15:34.387Z,8.72
2019-05-03T06:16:32.465Z,8.78
2019-05-03T06:17:32.434Z,8.85
2019-05-03T06:18:32.418Z,8.80
2019-05-03T06:19:34.427Z,8.85
2019-05-03T06:20:32.392Z,8.83
2019-05-03T06:21:32.412Z,8.80
2019-05-03T06:22:34.409Z,8.89
2019-05-03T06:23:32.357Z,8.85
2019-05-03T06:24:32.366Z,8.88
2019-05-03T06:25:32.335Z,8.80
2019-05-03T06:26:34.507Z,8.93
2019-05-03T06:27:32.324Z,8.85
2019-05-03T06:28:32.302Z,8.80
2019-05-03T06:29:32.293Z,8.83
2019-05-03T06:30:32.279Z,8.75
2019-05-03T06:31:34.298Z,8.92
2019-05-03T06:32:32.265Z,8.90
2019-05-03T06:33:32.330Z,8.86
2019-05-03T06:34:32.235Z,8.78
2019-05-03T06:35:32.223Z,8.89
2019-05-03T06:36:32.240Z,8.92
2019-05-03T06:37:32.289Z,9.03
2019-05-03T06:39:35.137Z,8.93
2019-05-03T06:40:32.171Z,8.90
2019-05-03T06:41:32.286Z,9.01
2019-05-03T06:42:32.157Z,8.95
2019-05-03T06:43:32.139Z,9.04
2019-05-03T06:44:32.124Z,8.93
2019-05-03T06:45:32.117Z,9.08
2019-05-03T06:46:32.165Z,9.03
2019-05-03T06:47:32.095Z,9.11
2019-05-03T06:48:32.150Z,9.01
2019-05-03T06:49:32.073Z,8.99
2019-05-03T06:50:32.061Z,8.95
2019-05-03T06:51:32.047Z,8.93
2019-05-03T06:52:32.071Z,8.83
2019-05-03T06:53:32.042Z,8.89
2019-05-03T06:54:32.017Z,8.83
2019-05-03T06:55:32.014Z,8.86
2019-05-03T06:56:31.991Z,8.89
2019-05-03T06:58:35.755Z,8.95
2019-05-03T06:59:31.963Z,8.92
2019-05-03T07:00:31.955Z,9.03
2019-05-03T07:01:31.937Z,8.96
2019-05-03T07:02:31.963Z,9.06
2019-05-03T07:03:31.921Z,8.95
2019-05-03T07:04:31.915Z,9.01
2019-05-03T07:05:31.896Z,8.89
2019-05-03T07:06:37.303Z,9.03
2019-05-03T07:07:32.891Z,9.11
2019-05-03T07:08:31.863Z,9.27
2019-05-03T07:09:31.850Z,9.34
2019-05-03T07:10:31.835Z,9.34
2019-05-03T07:11:31.840Z,9.40
2019-05-03T07:12:31.851Z,9.44
2019-05-03T07:13:31.807Z,9.55
2019-05-03T07:14:31.796Z,9.50
2019-05-03T07:15:31.780Z,9.47
2019-05-03T07:16:31.767Z,9.51
2019-05-03T07:17:31.781Z,9.57
2019-05-03T07:18:31.761Z,9.84
2019-05-03T07:19:31.733Z,9.93
2019-05-03T07:20:31.721Z,9.85
2019-05-03T07:21:31.717Z,9.83
2019-05-03T07:22:31.735Z,9.72
2019-05-03T07:23:31.692Z,9.70
2019-05-03T07:24:34.876Z,9.65
2019-05-03T07:25:34.351Z,9.54
2019-05-03T07:26:31.656Z,9.41
2019-05-03T07:27:31.666Z,9.41
2019-05-03T07:28:44.400Z,9.30
2019-05-03T07:29:32.619Z,9.36
2019-05-03T07:30:34.428Z,9.23
2019-05-03T07:31:31.604Z,9.40
2019-05-03T07:32:31.588Z,9.34
2019-05-03T07:33:31.594Z,9.51
2019-05-03T07:34:31.562Z,9.50
2019-05-03T07:35:31.550Z,9.55
2019-05-03T07:36:31.535Z,9.65
2019-05-03T07:37:31.537Z,9.48
2019-05-03T07:39:34.760Z,9.27
2019-05-03T07:40:31.496Z,8.99
2019-05-03T07:41:31.479Z,8.98
2019-05-03T07:42:31.473Z,9.04
2019-05-03T07:43:31.484Z,9.29
2019-05-03T07:44:31.454Z,9.33
2019-05-03T07:45:31.432Z,9.33
2019-05-03T07:46:31.850Z,9.32
2019-05-03T07:47:31.414Z,9.54
2019-05-03T07:48:31.425Z,9.44
2019-05-03T07:49:31.388Z,9.48
2019-05-03T07:50:33.211Z,9.67
2019-05-03T07:51:31.366Z,9.75
2019-05-03T07:52:31.359Z,9.84
2019-05-03T07:53:31.373Z,9.77
2019-05-03T07:54:31.359Z,9.80
2019-05-03T07:55:31.328Z,9.70
2019-05-03T07:56:31.321Z,9.83
2019-05-03T07:57:31.311Z,9.78
2019-05-03T07:58:31.317Z,9.73
2019-05-03T07:59:31.286Z,9.94
2019-05-03T08:00:31.270Z,9.98
2019-05-03T08:01:31.254Z,9.88
2019-05-03T08:02:31.246Z,9.98
2019-05-03T08:03:31.255Z,9.90
2019-05-03T08:04:31.247Z,9.83
2019-05-03T08:05:31.213Z,9.88
2019-05-03T08:06:31.201Z,9.62
2019-05-03T08:07:31.188Z,9.47
2019-05-03T08:08:31.178Z,9.44
2019-05-03T08:09:31.191Z,9.47
2019-05-03T08:10:31.159Z,9.45
2019-05-03T08:11:31.138Z,9.52
2019-05-03T08:12:31.132Z,9.50
2019-05-03T08:13:31.122Z,9.55
2019-05-03T08:14:31.136Z,9.52
2019-05-03T08:15:31.101Z,9.59
2019-05-03T08:16:31.087Z,9.50
2019-05-03T08:17:31.078Z,9.55
2019-05-03T08:18:31.065Z,9.77
2019-05-03T08:19:31.079Z,9.91
2019-05-03T08:20:31.041Z,9.93
2019-05-03T08:21:31.035Z,9.99
2019-05-03T08:22:31.015Z,10.06
2019-05-03T08:23:31.009Z,9.99
2019-05-03T08:24:31.025Z,9.91
2019-05-03T08:25:30.986Z,10.09
2019-05-03T08:26:30.971Z,10.05
2019-05-03T08:27:30.962Z,10.08
2019-05-03T08:28:39.144Z,10.09
2019-05-03T08:29:38.718Z,10.01
2019-05-03T08:30:39.686Z,10.09
2019-05-03T08:31:39.707Z,9.93
2019-05-03T08:32:39.713Z,9.90
2019-05-03T08:33:40.742Z,9.91
2019-05-03T08:34:38.145Z,9.96
2019-05-03T08:35:30.871Z,9.84
2019-05-03T08:36:30.858Z,9.93
2019-05-03T08:37:30.861Z,10.06
2019-05-03T08:38:30.838Z,10.18
2019-05-03T08:39:30.910Z,10.12
2019-05-03T08:40:30.845Z,10.20
2019-05-03T08:41:39.795Z,10.12
2019-05-03T08:42:38.843Z,10.16
2019-05-03T08:43:38.856Z,10.21
2019-05-03T08:44:38.061Z,10.27
2019-05-03T08:45:30.867Z,10.14
2019-05-03T08:46:30.744Z,10.27
2019-05-03T08:47:30.735Z,10.28
2019-05-03T08:48:30.726Z,10.43
2019-05-03T08:49:30.710Z,10.46
2019-05-03T08:50:30.726Z,10.46
2019-05-03T08:51:30.696Z,10.58
2019-05-03T08:52:30.677Z,10.61
2019-05-03T08:53:30.664Z,10.64
2019-05-03T08:54:30.653Z,10.60
2019-05-03T08:55:31.384Z,10.58
2019-05-03T08:56:30.634Z,10.70
2019-05-03T08:57:30.621Z,10.68
2019-05-03T08:58:30.609Z,10.70
2019-05-03T08:59:32.704Z,10.58
2019-05-03T09:00:30.615Z,10.52
2019-05-03T09:01:30.612Z,10.35
2019-05-03T09:02:30.563Z,10.27
2019-05-03T09:03:30.560Z,10.18
2019-05-03T09:04:37.362Z,10.36
2019-05-03T09:05:31.567Z,10.28
2019-05-03T09:06:30.523Z,10.38
2019-05-03T09:07:30.511Z,10.43
2019-05-03T09:08:30.497Z,10.30
2019-05-03T09:09:30.489Z,10.26
2019-05-03T09:10:30.517Z,10.26
2019-05-03T09:11:33.660Z,10.27
2019-05-03T09:12:30.451Z,10.31
2019-05-03T09:13:30.442Z,10.17
2019-05-03T09:14:41.367Z,10.31
2019-05-03T09:15:31.451Z,10.27
2019-05-03T09:16:30.406Z,10.31
2019-05-03T09:17:30.404Z,10.43
2019-05-03T09:18:30.389Z,10.58
2019-05-03T09:19:30.389Z,10.49
2019-05-03T09:20:32.343Z,10.45
2019-05-03T09:21:30.355Z,10.54
2019-05-03T09:22:30.348Z,10.75
2019-05-03T09:23:30.330Z,10.85
2019-05-03T09:24:30.320Z,10.93
2019-05-03T09:25:30.339Z,10.64
2019-05-03T09:26:30.296Z,10.65
2019-05-03T09:27:30.291Z,10.58
2019-05-03T09:28:30.279Z,10.65
2019-05-03T09:29:40.287Z,10.80
2019-05-03T09:30:31.401Z,10.91
2019-05-03T09:31:30.274Z,10.87
2019-05-03T09:32:30.229Z,11.03
2019-05-03T09:33:30.216Z,11.12
2019-05-03T09:34:30.215Z,11.08
2019-05-03T09:35:33.173Z,11.15
2019-05-03T09:36:31.354Z,11.08
2019-05-03T09:37:30.183Z,11.18
2019-05-03T09:38:30.164Z,11.01
2019-05-03T09:39:30.153Z,10.97
2019-05-03T09:40:30.144Z,10.70
2019-05-03T09:41:30.166Z,10.57
2019-05-03T09:42:30.119Z,10.41
2019-05-03T09:43:30.114Z,10.42
2019-05-03T09:44:30.094Z,10.34
2019-05-03T09:45:30.087Z,10.23
2019-05-03T09:46:30.204Z,10.31
2019-05-03T09:47:30.065Z,10.35
2019-05-03T09:49:31.172Z,10.52
2019-05-03T09:50:30.045Z,10.55
2019-05-03T09:51:30.047Z,10.75
2019-05-03T09:52:30.039Z,10.85
2019-05-03T09:53:29.999Z,10.94
2019-05-03T09:54:29.988Z,11.09
2019-05-03T09:55:29.985Z,11.05
2019-05-03T09:56:30.035Z,11.12
2019-05-03T09:57:30.003Z,11.16
2019-05-03T09:58:29.966Z,11.16
2019-05-03T09:59:29.933Z,11.03
2019-05-03T10:00:29.919Z,11.08
2019-05-03T10:01:29.914Z,10.94
2019-05-03T10:02:29.919Z,10.93
2019-05-03T10:03:29.886Z,10.85
2019-05-03T10:04:29.887Z,10.79
2019-05-03T10:05:29.864Z,10.80
2019-05-03T10:06:29.931Z,10.78
2019-05-03T10:07:29.865Z,10.82
2019-05-03T10:08:29.837Z,10.64
2019-05-03T10:09:29.814Z,10.58
2019-05-03T10:10:29.816Z,10.65
2019-05-03T10:11:29.794Z,10.61
2019-05-03T10:12:29.817Z,10.79
2019-05-03T10:13:29.775Z,10.97
2019-05-03T10:14:29.763Z,10.98
2019-05-03T10:15:29.749Z,10.97
2019-05-03T10:16:29.744Z,11.08
2019-05-03T10:17:29.756Z,11.19
2019-05-03T10:18:29.718Z,11.18
2019-05-03T10:19:37.601Z,11.20
2019-05-03T10:20:30.704Z,11.28
2019-05-03T10:21:29.685Z,11.43
2019-05-03T10:22:29.705Z,11.54
2019-05-03T10:23:29.659Z,11.55
2019-05-03T10:24:29.653Z,11.87
2019-05-03T10:25:29.652Z,11.71
2019-05-03T10:26:29.651Z,11.91
2019-05-03T10:27:29.650Z,11.97
2019-05-03T10:28:29.656Z,12.14
2019-05-03T10:29:29.597Z,12.22
2019-05-03T10:30:29.585Z,11.97
2019-05-03T10:31:29.580Z,12.03
2019-05-03T10:32:29.567Z,11.89
2019-05-03T10:33:29.607Z,11.73
2019-05-03T10:34:29.541Z,11.56
2019-05-03T10:35:29.531Z,11.62
2019-05-03T10:36:29.515Z,11.41
2019-05-03T10:37:29.511Z,11.41
2019-05-03T10:38:29.528Z,11.28
2019-05-03T10:39:29.481Z,11.27
2019-05-03T10:40:29.469Z,11.23
2019-05-03T10:41:29.464Z,11.19
2019-05-03T10:42:29.450Z,11.12
2019-05-03T10:43:29.473Z,10.93
2019-05-03T10:44:29.433Z,10.76
2019-05-03T10:45:29.416Z,10.82
2019-05-03T10:46:29.419Z,10.72
2019-05-03T10:47:29.391Z,10.73
2019-05-03T10:48:29.423Z,10.70
2019-05-03T10:49:29.391Z,10.64
2019-05-03T10:50:29.367Z,10.72
2019-05-03T10:51:29.349Z,10.68
2019-05-03T10:52:29.343Z,10.93
2019-05-03T10:53:29.356Z,10.98
2019-05-03T10:54:29.311Z,11.01
2019-05-03T10:55:29.352Z,11.20
2019-05-03T10:56:29.289Z,11.16
2019-05-03T10:57:29.283Z,11.18
2019-05-03T10:58:29.292Z,11.45
2019-05-03T10:59:29.302Z,11.45
2019-05-03T11:00:52.214Z,11.43
2019-05-03T11:01:30.247Z,11.58
2019-05-03T11:02:31.238Z,11.34
2019-05-03T11:03:29.217Z,11.31
2019-05-03T11:04:29.236Z,11.40
2019-05-03T11:05:29.190Z,11.45
2019-05-03T11:06:29.182Z,11.52
2019-05-03T11:07:29.177Z,11.82
2019-05-03T11:08:29.164Z,11.84
2019-05-03T11:09:29.167Z,11.84
2019-05-03T11:10:29.140Z,11.77
2019-05-03T11:11:29.137Z,11.62
2019-05-03T11:12:29.111Z,11.56
2019-05-03T11:13:29.104Z,11.37
2019-05-03T11:14:29.116Z,11.40
2019-05-03T11:15:29.083Z,11.64
2019-05-03T11:16:29.072Z,11.62
2019-05-03T11:17:29.054Z,11.51
2019-05-03T11:18:29.053Z,11.23
2019-05-03T11:19:29.052Z,11.31
2019-05-03T11:20:32.073Z,11.43
2019-05-03T11:21:31.192Z,11.43
2019-05-03T11:22:29.033Z,11.38
2019-05-03T11:23:28.983Z,11.18
2019-05-03T11:24:29.018Z,11.08
2019-05-03T11:25:28.979Z,11.01
2019-05-03T11:26:28.961Z,11.00
2019-05-03T11:27:28.954Z,10.97
2019-05-03T11:28:28.940Z,11.00
2019-05-03T11:29:28.948Z,11.05
2019-05-03T11:30:28.905Z,10.94
2019-05-03T11:31:28.906Z,11.00
2019-05-03T11:32:28.886Z,10.93
2019-05-03T11:33:28.880Z,10.91
2019-05-03T11:34:28.899Z,10.94
2019-05-03T11:35:28.890Z,11.16
2019-05-03T11:36:31.569Z,11.25
2019-05-03T11:37:28.830Z,11.54
2019-05-03T11:38:28.830Z,11.58
2019-05-03T11:39:28.809Z,11.85
2019-05-03T11:40:28.997Z,11.80
2019-05-03T11:41:32.484Z,11.82
2019-05-03T11:42:28.778Z,12.08
2019-05-03T11:43:28.762Z,12.23
2019-05-03T11:45:29.899Z,12.26
2019-05-03T11:46:28.750Z,12.18
2019-05-03T11:47:28.723Z,12.18
2019-05-03T11:48:28.723Z,12.08
2019-05-03T11:49:28.698Z,12.22
2019-05-03T11:50:28.742Z,12.04
2019-05-03T11:51:28.672Z,12.04
2019-05-03T11:52:28.667Z,11.95
2019-05-03T11:53:28.652Z,11.85
2019-05-03T11:54:28.645Z,11.84
2019-05-03T11:55:28.664Z,11.73
2019-05-03T11:56:28.712Z,11.73
2019-05-03T11:57:28.606Z,11.93
2019-05-03T11:58:28.694Z,12.03
2019-05-03T11:59:28.587Z,12.33
2019-05-03T12:01:29.718Z,12.50
2019-05-03T12:02:28.945Z,12.53
2019-05-03T12:03:28.550Z,12.17
2019-05-03T12:04:28.536Z,12.26
2019-05-03T12:05:28.557Z,12.07
2019-05-03T12:06:28.513Z,12.04
2019-05-03T12:07:38.547Z,11.97
2019-05-03T12:08:29.480Z,12.26
2019-05-03T12:09:28.470Z,12.29
2019-05-03T12:10:47.030Z,12.51
2019-05-03T12:11:29.455Z,12.55
2019-05-03T12:12:29.543Z,12.73
2019-05-03T12:13:28.429Z,12.68
2019-05-03T12:14:28.421Z,12.61
2019-05-03T12:15:28.419Z,12.53
2019-05-03T12:17:08.633Z,12.58
2019-05-03T12:17:29.955Z,12.68
2019-05-03T12:18:28.741Z,12.76
2019-05-03T12:19:31.603Z,12.66
2019-05-03T12:20:29.943Z,12.65
2019-05-03T12:21:29.764Z,12.69
2019-05-03T12:22:28.779Z,12.43
2019-05-03T12:23:31.294Z,12.55
2019-05-03T12:24:28.966Z,12.63
2019-05-03T12:25:28.910Z,12.65
2019-05-03T12:26:40.658Z,12.69
2019-05-03T12:27:29.267Z,12.83
2019-05-03T12:28:28.257Z,13.01
2019-05-03T12:29:28.255Z,13.21
2019-05-03T12:30:28.239Z,13.14
2019-05-03T12:31:36.934Z,13.16
2019-05-03T12:32:29.220Z,12.99
2019-05-03T12:33:28.202Z,12.91
2019-05-03T12:34:28.197Z,12.87
2019-05-03T12:35:28.180Z,12.79
2019-05-03T12:36:28.199Z,12.79
2019-05-03T12:37:28.176Z,12.93
2019-05-03T12:38:28.150Z,12.90
2019-05-03T12:39:30.539Z,12.96
2019-05-03T12:40:28.132Z,12.77
2019-05-03T12:41:28.189Z,12.86
2019-05-03T12:42:28.135Z,12.87
2019-05-03T12:43:28.103Z,12.77
2019-05-03T12:44:28.082Z,12.76
2019-05-03T12:45:28.060Z,12.61
2019-05-03T12:46:28.062Z,12.77
2019-05-03T12:47:28.045Z,12.68
2019-05-03T12:48:28.071Z,12.63
2019-05-03T12:49:28.019Z,12.65
2019-05-03T12:50:28.020Z,12.68
2019-05-03T12:51:28.113Z,12.87
2019-05-03T12:52:28.602Z,12.87
2019-05-03T12:53:27.986Z,12.99
2019-05-03T12:54:27.980Z,12.90
2019-05-03T12:55:27.951Z,12.76
2019-05-03T12:56:32.605Z,12.81
2019-05-03T12:57:29.064Z,12.77
2019-05-03T12:58:27.934Z,12.87
2019-05-03T12:59:27.913Z,12.80
2019-05-03T13:00:27.898Z,12.66
2019-05-03T13:01:40.223Z,12.73
2019-05-03T13:02:28.931Z,12.68
2019-05-03T13:03:27.912Z,12.63
2019-05-03T13:04:27.850Z,12.66
2019-05-03T13:05:27.882Z,12.33
2019-05-03T13:06:27.827Z,12.35
2019-05-03T13:07:27.824Z,12.13
2019-05-03T13:08:27.829Z,12.17
2019-05-03T13:09:27.809Z,12.13
2019-05-03T13:10:27.779Z,12.29
2019-05-03T13:11:27.781Z,12.50
2019-05-03T13:12:27.757Z,12.72
2019-05-03T13:13:27.782Z,12.91
2019-05-03T13:14:27.753Z,12.96
2019-05-03T13:15:27.734Z,12.84
2019-05-03T13:16:27.716Z,12.84
2019-05-03T13:17:27.712Z,12.81
2019-05-03T13:18:27.724Z,12.63
2019-05-03T13:19:27.676Z,12.62
2019-05-03T13:20:27.670Z,12.69
2019-05-03T13:21:27.668Z,12.58
2019-05-03T13:22:27.645Z,12.58
2019-05-03T13:23:27.637Z,12.59
2019-05-03T13:24:27.664Z,12.61